createdAt,value
2023-02-19T00:01:45.726Z,7.63
2023-02-19T00:04:22.158Z,8.00
2023-02-19T00:06:55.349Z,8.25
2023-02-19T00:09:22.696Z,7.38
2023-02-19T00:11:50.299Z,7.95
2023-02-19T00:14:21.062Z,7.70
2023-02-19T00:16:48.930Z,7.60
2023-02-19T00:19:20.274Z,7.95
2023-02-19T00:21:49.460Z,8.15
2023-02-19T00:24:17.331Z,7.85
2023-02-19T00:26:45.956Z,7.28
2023-02-19T00:29:15.984Z,8.15
2023-02-19T00:31:43.776Z,7.25
2023-02-19T00:34:12.649Z,7.72
2023-02-19T00:36:41.386Z,8.30
2023-02-19T00:39:09.143Z,7.13
2023-02-19T00:41:36.213Z,7.22
2023-02-19T00:44:07.118Z,8.10
2023-02-19T00:46:37.011Z,7.90
2023-02-19T00:49:06.923Z,7.18
2023-02-19T00:51:36.651Z,7.38
2023-02-19T00:54:05.312Z,7.68
2023-02-19T00:56:32.685Z,7.78
2023-02-19T00:58:59.875Z,7.53
2023-02-19T01:01:27.102Z,7.10
2023-02-19T01:03:54.447Z,7.43
2023-02-19T01:06:22.357Z,6.55
2023-02-19T01:08:50.483Z,7.32
2023-02-19T01:11:18.197Z,6.93
2023-02-19T01:13:45.306Z,6.45
2023-02-19T01:16:16.173Z,6.70
2023-02-19T01:18:44.566Z,6.80
2023-02-19T01:21:23.266Z,6.50
2023-02-19T01:23:51.548Z,6.72
2023-02-19T01:26:21.780Z,6.22
2023-02-19T01:28:49.566Z,6.30
2023-02-19T01:31:20.580Z,5.93
2023-02-19T01:33:53.551Z,6.90
2023-02-19T01:36:21.531Z,6.35
2023-02-19T01:38:49.843Z,5.72
2023-02-19T01:41:21.338Z,6.03
2023-02-19T01:44:12.848Z,6.30
2023-02-19T01:46:44.710Z,6.70
2023-02-19T01:49:28.082Z,6.90
2023-02-19T01:52:06.603Z,6.20
2023-02-19T01:54:38.157Z,6.32
2023-02-19T01:57:12.010Z,6.07
2023-02-19T01:59:40.830Z,5.43
2023-02-19T02:02:09.903Z,6.00
2023-02-19T02:04:37.028Z,5.70
2023-02-19T02:07:26.488Z,5.93
2023-02-19T02:10:12.990Z,5.95
2023-02-19T02:12:40.103Z,6.25
2023-02-19T02:15:07.991Z,5.90
2023-02-19T02:17:56.268Z,5.72
2023-02-19T02:20:35.106Z,6.85
2023-02-19T02:23:17.057Z,6.15
2023-02-19T02:25:50.168Z,6.15
2023-02-19T02:28:45.889Z,5.22
2023-02-19T02:31:18.325Z,5.25
2023-02-19T02:34:06.777Z,5.20
2023-02-19T02:36:39.370Z,5.60
2023-02-19T02:39:11.670Z,4.93
2023-02-19T02:42:19.386Z,4.93
2023-02-19T02:45:16.717Z,5.20
2023-02-19T02:47:52.821Z,5.30
2023-02-19T02:50:29.467Z,5.10
2023-02-19T02:53:19.254Z,4.95
2023-02-19T02:55:50.404Z,4.60
2023-02-19T02:58:19.926Z,4.43
2023-02-19T03:01:17.434Z,5.50
2023-02-19T03:03:48.233Z,5.55
2023-02-19T03:06:18.799Z,5.28
2023-02-19T03:09:07.009Z,5.72
2023-02-19T03:11:56.635Z,5.70
2023-02-19T03:14:52.822Z,5.47
2023-02-19T03:17:52.125Z,5.68
2023-02-19T03:20:23.829Z,6.05
2023-02-19T03:22:53.298Z,5.40
2023-02-19T03:25:44.017Z,5.95
2023-02-19T03:28:17.833Z,5.50
2023-02-19T03:30:53.186Z,5.40
2023-02-19T03:33:25.055Z,5.80
2023-02-19T03:36:02.547Z,5.55
2023-02-19T03:38:52.987Z,5.00
2023-02-19T03:41:35.692Z,5.20
2023-02-19T03:44:20.637Z,5.45
2023-02-19T03:47:05.637Z,5.60
2023-02-19T03:49:42.171Z,5.50
2023-02-19T03:52:40.457Z,4.80
2023-02-19T03:55:23.619Z,5.28
2023-02-19T03:58:06.230Z,5.28
2023-02-19T04:00:49.794Z,5.70
2023-02-19T04:03:29.063Z,5.32
2023-02-19T04:06:02.592Z,5.38
2023-02-19T04:08:34.062Z,5.88
2023-02-19T04:11:05.851Z,5.80
2023-02-19T04:13:54.824Z,5.55
2023-02-19T04:16:26.811Z,6.20
2023-02-19T04:18:57.599Z,6.20
2023-02-19T04:21:25.989Z,6.10
2023-02-19T04:23:53.124Z,5.88
2023-02-19T04:26:23.134Z,5.80
2023-02-19T04:28:50.642Z,5.65
2023-02-19T04:31:17.948Z,5.57
2023-02-19T04:33:45.137Z,5.47
2023-02-19T04:36:12.508Z,5.60
2023-02-19T04:38:39.575Z,4.93
2023-02-19T04:41:06.740Z,5.18
2023-02-19T04:43:34.255Z,5.10
2023-02-19T04:46:02.834Z,5.25
2023-02-19T04:48:30.233Z,5.22
2023-02-19T04:50:57.343Z,5.13
2023-02-19T04:53:24.448Z,5.03
2023-02-19T04:55:53.446Z,4.72
2023-02-19T04:58:21.482Z,4.72
2023-02-19T05:01:00.254Z,4.78
2023-02-19T05:03:29.490Z,4.85
2023-02-19T05:05:56.681Z,4.40
2023-02-19T05:08:24.184Z,5.18
2023-02-19T05:10:51.436Z,4.85
2023-02-19T05:13:18.862Z,5.32
2023-02-19T05:16:05.809Z,4.45
2023-02-19T05:18:34.901Z,4.63
2023-02-19T05:21:02.471Z,5.20
2023-02-19T05:23:29.838Z,5.25
2023-02-19T05:26:05.343Z,4.72
2023-02-19T05:28:35.318Z,5.90
2023-02-19T05:31:13.848Z,5.13
2023-02-19T05:33:43.471Z,5.15
2023-02-19T05:36:13.269Z,5.03
2023-02-19T05:38:41.753Z,5.00
2023-02-19T05:41:13.379Z,5.53
2023-02-19T05:43:42.278Z,4.53
2023-02-19T05:46:11.219Z,4.90
2023-02-19T05:48:38.761Z,4.97
2023-02-19T05:51:10.141Z,5.05
2023-02-19T05:53:38.754Z,5.00
2023-02-19T05:56:21.189Z,4.72
2023-02-19T05:58:48.414Z,4.80
2023-02-19T06:01:17.516Z,5.00
2023-02-19T06:03:44.675Z,4.88
2023-02-19T06:06:14.943Z,5.53
2023-02-19T06:08:42.297Z,4.93
2023-02-19T06:11:11.178Z,5.20
2023-02-19T06:13:38.453Z,5.40
2023-02-19T06:16:07.203Z,4.93
2023-02-19T06:18:35.124Z,4.78
2023-02-19T06:21:06.237Z,4.72
2023-02-19T06:23:33.732Z,4.55
2023-02-19T06:26:11.806Z,4.43
2023-02-19T06:28:41.073Z,4.82
2023-02-19T06:31:09.655Z,4.40
2023-02-19T06:33:40.583Z,5.18
2023-02-19T06:36:12.601Z,5.10
2023-02-19T06:38:40.052Z,4.82
2023-02-19T06:41:08.945Z,5.72
2023-02-19T06:43:37.904Z,6.03
2023-02-19T06:46:07.163Z,5.55
2023-02-19T06:48:35.185Z,5.70
2023-02-19T06:51:02.890Z,5.82
2023-02-19T06:53:30.333Z,5.78
2023-02-19T06:56:03.342Z,6.10
2023-02-19T06:58:31.263Z,5.90
2023-02-19T07:00:58.570Z,5.85
2023-02-19T07:03:26.635Z,5.82
2023-02-19T07:05:54.016Z,5.88
2023-02-19T07:08:21.375Z,6.25
2023-02-19T07:10:58.772Z,6.13
2023-02-19T07:13:27.126Z,6.57
2023-02-19T07:16:02.383Z,6.90
2023-02-19T07:18:31.201Z,6.35
2023-02-19T07:21:05.078Z,6.20
2023-02-19T07:23:32.383Z,6.18
2023-02-19T07:25:59.927Z,6.07
2023-02-19T07:28:27.628Z,6.05
2023-02-19T07:31:01.232Z,5.70
2023-02-19T07:33:28.671Z,6.22
2023-02-19T07:35:56.232Z,5.57
2023-02-19T07:38:24.972Z,5.50
2023-02-19T07:40:56.581Z,5.47
2023-02-19T07:43:29.591Z,6.05
2023-02-19T07:45:57.038Z,6.53
2023-02-19T07:48:24.439Z,5.80
2023-02-19T07:50:55.767Z,6.30
2023-02-19T07:53:24.039Z,6.63
2023-02-19T07:55:51.244Z,6.43
2023-02-19T07:58:18.917Z,6.68
2023-02-19T08:00:46.348Z,5.93
2023-02-19T08:03:13.540Z,6.50
2023-02-19T08:05:42.469Z,7.32
2023-02-19T08:08:12.373Z,6.45
2023-02-19T08:10:58.666Z,5.85
2023-02-19T08:13:30.976Z,5.90
2023-02-19T08:16:16.973Z,6.60
2023-02-19T08:18:48.420Z,6.53
2023-02-19T08:21:18.407Z,7.63
2023-02-19T08:23:46.570Z,6.70
2023-02-19T08:26:13.966Z,6.95
2023-02-19T08:28:41.840Z,5.97
2023-02-19T08:31:11.749Z,6.22
2023-02-19T08:33:39.268Z,6.82
2023-02-19T08:36:08.828Z,6.70
2023-02-19T08:38:36.989Z,6.63
2023-02-19T08:41:08.551Z,6.45
2023-02-19T08:43:36.462Z,6.20
2023-02-19T08:46:04.503Z,6.07
2023-02-19T08:48:31.945Z,6.65
2023-02-19T08:51:04.551Z,6.70
2023-02-19T08:53:32.944Z,5.85
2023-02-19T08:56:05.499Z,6.20
2023-02-19T08:58:33.254Z,6.40
2023-02-19T09:01:00.616Z,6.45
2023-02-19T09:03:27.758Z,5.97
2023-02-19T09:05:55.027Z,6.38
2023-02-19T09:08:22.219Z,5.97
2023-02-19T09:11:07.597Z,6.78
2023-02-19T09:13:34.773Z,5.53
2023-02-19T09:16:04.486Z,6.45
2023-02-19T09:18:32.056Z,6.22
2023-02-19T09:21:06.150Z,5.70
2023-02-19T09:23:34.651Z,5.90
2023-02-19T09:26:04.137Z,6.00
2023-02-19T09:28:31.591Z,5.15
2023-02-19T09:31:08.292Z,5.97
2023-02-19T09:33:35.585Z,5.43
2023-02-19T09:36:03.950Z,6.18
2023-02-19T09:38:31.125Z,5.85
2023-02-19T09:41:05.797Z,5.30
2023-02-19T09:43:33.772Z,5.70
2023-02-19T09:46:17.630Z,4.80
2023-02-19T09:48:44.704Z,5.80
2023-02-19T09:51:14.192Z,4.95
2023-02-19T09:53:44.539Z,4.30
2023-02-19T09:56:11.933Z,5.28
2023-02-19T09:58:59.580Z,5.35
2023-02-19T10:01:32.762Z,5.10
2023-02-19T10:04:00.353Z,5.55
2023-02-19T10:06:30.005Z,5.13
2023-02-19T10:09:13.816Z,5.70
2023-02-19T10:11:42.408Z,5.18
2023-02-19T10:14:19.189Z,5.80
2023-02-19T10:16:49.364Z,6.15
2023-02-19T10:19:17.259Z,5.53
2023-02-19T10:21:45.322Z,6.20
2023-02-19T10:24:27.474Z,5.88
2023-02-19T10:26:55.298Z,5.60
2023-02-19T10:29:24.751Z,5.50
2023-02-19T10:32:21.180Z,5.80
2023-02-19T10:34:54.052Z,5.40
2023-02-19T10:37:21.268Z,5.47
2023-02-19T10:39:50.802Z,5.57
2023-02-19T10:42:23.300Z,5.80
2023-02-19T10:44:55.735Z,6.30
2023-02-19T10:47:25.960Z,7.00
2023-02-19T10:49:58.065Z,5.22
2023-02-19T10:52:36.756Z,5.90
2023-02-19T10:55:25.253Z,6.30
2023-02-19T10:57:52.317Z,6.10
2023-02-19T11:00:23.214Z,6.30
2023-02-19T11:02:51.039Z,6.90
2023-02-19T11:05:21.509Z,6.72
2023-02-19T11:07:50.220Z,6.28
2023-02-19T11:10:40.758Z,7.28
2023-02-19T11:13:16.584Z,8.02
2023-02-19T11:15:50.574Z,6.57
2023-02-19T11:18:26.794Z,6.43
2023-02-19T11:20:57.828Z,7.05
2023-02-19T11:23:46.538Z,6.93
2023-02-19T11:26:27.601Z,7.35
2023-02-19T11:29:00.777Z,7.18
2023-02-19T11:31:34.420Z,7.18
2023-02-19T11:34:29.528Z,7.72
2023-02-19T11:37:15.158Z,8.40
2023-02-19T11:39:45.490Z,9.13
2023-02-19T11:42:23.905Z,8.00
2023-02-19T11:45:07.197Z,7.40
2023-02-19T11:47:57.369Z,9.05
2023-02-19T11:50:30.636Z,8.90
2023-02-19T11:53:16.816Z,9.13
2023-02-19T11:56:07.297Z,9.10
2023-02-19T11:59:05.383Z,9.30
2023-02-19T12:01:54.494Z,7.93
2023-02-19T12:04:43.188Z,10.18
2023-02-19T12:07:23.210Z,8.88
2023-02-19T12:10:21.274Z,9.73
2023-02-19T12:12:52.753Z,7.80
2023-02-19T12:15:31.642Z,9.60
2023-02-19T12:18:16.859Z,9.57
2023-02-19T12:24:15.913Z,8.73
2023-02-19T12:27:00.976Z,10.45
2023-02-19T12:29:57.458Z,9.70
2023-02-19T12:32:47.924Z,9.68
2023-02-19T12:35:48.277Z,10.48
2023-02-19T12:38:23.777Z,10.45
2023-02-19T12:40:59.364Z,10.75
2023-02-19T12:43:26.986Z,11.15
2023-02-19T12:46:01.139Z,10.30
2023-02-19T12:48:44.612Z,9.75
2023-02-19T12:51:25.873Z,10.60
2023-02-19T12:54:19.267Z,10.98
2023-02-19T12:56:57.571Z,11.07
2023-02-19T12:59:26.738Z,10.73
2023-02-19T13:02:05.956Z,11.38
2023-02-19T13:04:45.617Z,11.55
2023-02-19T13:07:26.295Z,10.75
2023-02-19T13:10:03.345Z,11.63
2023-02-19T13:12:36.974Z,11.23
2023-02-19T13:15:14.988Z,11.50
2023-02-19T13:17:47.809Z,10.48
2023-02-19T13:20:29.912Z,11.50
2023-02-19T13:23:32.031Z,10.55
2023-02-19T13:26:16.426Z,10.50
2023-02-19T13:29:05.197Z,9.38
2023-02-19T13:31:38.644Z,9.82
2023-02-19T13:34:31.877Z,11.77
2023-02-19T13:36:59.821Z,9.73
2023-02-19T13:39:28.493Z,10.82
2023-02-19T13:42:02.071Z,9.88
2023-02-19T13:44:31.915Z,10.13
2023-02-19T13:46:59.921Z,9.73
2023-02-19T13:49:31.690Z,10.48
2023-02-19T13:52:23.404Z,9.82
2023-02-19T13:54:51.450Z,11.45
2023-02-19T13:57:18.558Z,11.07
2023-02-19T13:59:46.634Z,10.13
2023-02-19T14:02:23.219Z,9.32
2023-02-19T14:05:44.409Z,8.88
2023-02-19T14:08:11.586Z,9.75
2023-02-19T14:11:02.681Z,9.43
2023-02-19T14:13:51.061Z,9.52
2023-02-19T14:16:38.128Z,9.63
2023-02-19T14:19:14.926Z,9.65
2023-02-19T14:21:44.066Z,8.88
2023-02-19T14:24:13.675Z,10.13
2023-02-19T14:26:41.847Z,9.32
2023-02-19T14:29:12.942Z,9.50
2023-02-19T14:31:40.830Z,9.07
2023-02-19T14:34:25.123Z,9.00
2023-02-19T14:36:55.627Z,8.15
2023-02-19T14:39:29.082Z,7.88
2023-02-19T14:42:02.138Z,7.80
2023-02-19T14:44:34.721Z,7.85
2023-02-19T14:47:07.506Z,8.88
2023-02-19T14:49:43.827Z,9.18
2023-02-19T14:52:25.140Z,8.13
2023-02-19T14:55:01.655Z,7.82
2023-02-19T14:57:35.962Z,7.20
2023-02-19T15:00:21.862Z,7.53
2023-02-19T15:02:51.179Z,7.57
2023-02-19T15:05:26.038Z,7.57
2023-02-19T15:10:22.854Z,7.57
2023-02-19T15:12:54.112Z,6.82
2023-02-19T15:15:30.453Z,8.00
2023-02-19T15:18:01.455Z,7.35
2023-02-19T15:20:32.782Z,7.47
2023-02-19T15:23:01.970Z,8.18
2023-02-19T15:25:38.155Z,7.85
2023-02-19T15:28:33.430Z,8.02
2023-02-19T15:31:00.602Z,8.10
2023-02-19T15:33:28.430Z,8.13
2023-02-19T15:35:59.218Z,7.55
2023-02-19T15:38:26.944Z,7.45
2023-02-19T15:40:57.380Z,8.00
2023-02-19T15:43:49.901Z,8.10
2023-02-19T15:46:22.619Z,7.85
2023-02-19T15:49:15.610Z,7.97
2023-02-19T15:51:52.632Z,8.40
2023-02-19T15:54:28.912Z,8.27
2023-02-19T15:57:03.432Z,8.68
2023-02-19T15:59:34.070Z,8.93
2023-02-19T16:02:03.641Z,9.85
2023-02-19T16:04:31.154Z,9.50
2023-02-19T16:07:03.766Z,9.18
2023-02-19T16:09:37.427Z,9.00
2023-02-19T16:12:20.686Z,9.20
2023-02-19T16:14:49.388Z,9.90
2023-02-19T16:17:20.794Z,10.10
2023-02-19T16:19:58.081Z,9.45
2023-02-19T16:22:29.066Z,9.80
2023-02-19T16:25:02.403Z,10.05
2023-02-19T16:27:38.225Z,9.77
2023-02-19T16:30:17.590Z,10.57
2023-02-19T16:32:47.044Z,10.30
2023-02-19T16:35:42.416Z,10.18
2023-02-19T16:38:14.785Z,10.07
2023-02-19T16:40:51.203Z,9.02
2023-02-19T16:43:26.510Z,10.40
2023-02-19T16:45:53.982Z,10.30
2023-02-19T16:48:27.857Z,9.40
2023-02-19T16:50:55.992Z,10.38
2023-02-19T16:53:25.466Z,9.82
2023-02-19T16:55:52.956Z,9.60
2023-02-19T16:58:21.580Z,9.82
2023-02-19T17:00:48.667Z,9.50
2023-02-19T17:03:19.580Z,9.75
2023-02-19T17:05:47.934Z,9.45
2023-02-19T17:08:37.296Z,10.48
2023-02-19T17:11:10.412Z,9.48
2023-02-19T17:13:38.286Z,9.65
2023-02-19T17:16:05.724Z,9.63
2023-02-19T17:18:33.344Z,9.23
2023-02-19T17:21:13.821Z,9.40
2023-02-19T17:23:41.201Z,10.35
2023-02-19T17:26:16.394Z,9.85
2023-02-19T17:28:43.539Z,9.23
2023-02-19T17:31:11.685Z,9.13
2023-02-19T17:33:39.655Z,9.30
2023-02-19T17:36:22.012Z,8.35
2023-02-19T17:38:49.248Z,9.27
2023-02-19T17:41:19.396Z,8.90
2023-02-19T17:43:50.687Z,9.00
2023-02-19T17:46:19.257Z,8.57
2023-02-19T17:48:46.515Z,8.63
2023-02-19T17:51:14.299Z,8.88
2023-02-19T17:53:42.665Z,8.63
2023-02-19T17:56:12.117Z,8.25
2023-02-19T17:58:39.310Z,8.23
2023-02-19T18:01:06.350Z,8.82
2023-02-19T18:03:33.417Z,8.18
2023-02-19T18:06:01.168Z,8.00
2023-02-19T18:08:30.898Z,8.10
2023-02-19T18:10:58.202Z,7.93
2023-02-19T18:13:25.548Z,7.60
2023-02-19T18:15:53.754Z,7.45
2023-02-19T18:18:21.206Z,7.80
2023-02-19T18:20:48.284Z,7.28
2023-02-19T18:23:15.869Z,7.47
2023-02-19T18:25:42.970Z,8.20
2023-02-19T18:28:13.142Z,7.78
2023-02-19T18:30:40.306Z,7.57
2023-02-19T18:33:07.800Z,8.50
2023-02-19T18:35:35.138Z,7.13
2023-02-19T18:38:02.491Z,7.32
2023-02-19T18:40:30.822Z,8.25
2023-02-19T18:42:59.672Z,8.00
2023-02-19T18:45:27.926Z,7.88
2023-02-19T18:47:55.298Z,8.27
2023-02-19T18:50:22.750Z,8.40
2023-02-19T18:52:50.232Z,8.05
2023-02-19T18:55:17.591Z,8.95
2023-02-19T18:57:57.408Z,8.63
2023-02-19T19:00:27.346Z,8.90
2023-02-19T19:03:01.762Z,9.38
2023-02-19T19:05:29.102Z,9.35
2023-02-19T19:07:59.433Z,9.38
2023-02-19T19:10:31.057Z,9.77
2023-02-19T19:12:59.373Z,9.00
2023-02-19T19:15:26.834Z,9.05
2023-02-19T19:17:55.125Z,9.30
2023-02-19T19:20:24.006Z,9.02
2023-02-19T19:22:52.743Z,9.43
2023-02-19T19:25:21.585Z,9.07
2023-02-19T19:27:53.264Z,11.45
2023-02-19T19:30:20.749Z,9.43
2023-02-19T19:32:50.383Z,11.13
2023-02-19T19:35:20.285Z,8.93
2023-02-19T19:37:47.704Z,9.32
2023-02-19T19:40:17.583Z,9.55
2023-02-19T19:42:44.848Z,9.25
2023-02-19T19:45:13.909Z,10.00
2023-02-19T19:47:41.119Z,9.27
2023-02-19T19:50:13.513Z,9.18
2023-02-19T19:52:49.381Z,9.10
2023-02-19T19:55:17.902Z,9.50
2023-02-19T19:57:45.730Z,9.32
2023-02-19T20:00:16.235Z,9.77
2023-02-19T20:02:44.642Z,9.05
2023-02-19T20:05:18.906Z,8.65
2023-02-19T20:07:47.368Z,8.45
2023-02-19T20:10:17.011Z,9.13
2023-02-19T20:12:44.141Z,8.90
2023-02-19T20:15:12.509Z,8.63
2023-02-19T20:17:41.537Z,9.23
2023-02-19T20:20:09.406Z,8.10
2023-02-19T20:22:37.866Z,7.90
2023-02-19T20:25:05.240Z,8.50
2023-02-19T20:27:32.498Z,7.47
2023-02-19T20:29:59.778Z,8.07
2023-02-19T20:32:26.845Z,8.25
2023-02-19T20:34:53.957Z,8.57
2023-02-19T20:37:21.156Z,8.13
2023-02-19T20:39:50.399Z,8.00
2023-02-19T20:42:18.330Z,8.18
2023-02-19T20:44:45.714Z,7.57
2023-02-19T20:47:12.839Z,8.40
2023-02-19T20:49:45.260Z,7.47
2023-02-19T20:52:15.540Z,7.90
2023-02-19T20:54:45.841Z,8.48
2023-02-19T20:57:15.600Z,8.50
2023-02-19T20:59:44.453Z,8.38
2023-02-19T21:02:18.593Z,7.95
2023-02-19T21:04:45.865Z,9.30
2023-02-19T21:07:13.077Z,9.10
2023-02-19T21:09:40.302Z,7.85
2023-02-19T21:12:07.866Z,8.20
2023-02-19T21:14:34.984Z,10.18
2023-02-19T21:17:02.249Z,7.95
2023-02-19T21:19:29.780Z,7.65
2023-02-19T21:21:56.950Z,6.18
2023-02-19T21:24:24.437Z,6.32
2023-02-19T21:26:51.982Z,6.45
2023-02-19T21:29:22.458Z,6.20
2023-02-19T21:31:52.440Z,6.68
2023-02-19T21:34:22.473Z,5.57
2023-02-19T21:36:49.557Z,5.50
2023-02-19T21:39:19.352Z,5.15
2023-02-19T21:41:46.545Z,5.40
2023-02-19T21:44:14.036Z,4.95
2023-02-19T21:46:42.376Z,4.50
2023-02-19T21:49:10.286Z,5.05
2023-02-19T21:51:41.486Z,4.97
2023-02-19T21:54:14.653Z,5.38
2023-02-19T21:56:42.055Z,5.22
2023-02-19T21:59:09.550Z,5.13
2023-02-19T22:01:38.936Z,4.80
2023-02-19T22:04:07.741Z,4.70
2023-02-19T22:06:37.004Z,4.05
2023-02-19T22:09:04.442Z,4.25
2023-02-19T22:11:32.123Z,4.35
2023-02-19T22:13:59.446Z,4.50
2023-02-19T22:16:27.070Z,5.05
2023-02-19T22:18:57.233Z,4.65
2023-02-19T22:21:27.697Z,4.70
2023-02-19T22:23:55.380Z,4.20
2023-02-19T22:26:36.410Z,4.65
2023-02-19T22:29:07.517Z,4.53
2023-02-19T22:31:35.779Z,4.63
2023-02-19T22:34:03.977Z,4.95
2023-02-19T22:36:33.765Z,4.20
2023-02-19T22:39:01.692Z,4.85
2023-02-19T22:41:29.268Z,5.43
2023-02-19T22:43:57.632Z,5.00
2023-02-19T22:46:27.280Z,5.07
2023-02-19T22:48:54.422Z,5.80
2023-02-19T22:51:24.367Z,6.13
2023-02-19T22:53:56.719Z,5.28
2023-02-19T22:56:26.063Z,5.60
2023-02-19T22:58:55.247Z,5.10
2023-02-19T23:01:23.451Z,4.10
2023-02-19T23:03:53.086Z,4.80
2023-02-19T23:06:38.698Z,3.95
2023-02-19T23:09:11.135Z,5.28
2023-02-19T23:11:39.507Z,5.65
2023-02-19T23:14:07.974Z,5.38
2023-02-19T23:16:38.475Z,4.30
2023-02-19T23:19:07.181Z,5.22
2023-02-19T23:21:34.548Z,5.05
2023-02-19T23:24:01.886Z,4.18
2023-02-19T23:26:29.186Z,3.80
2023-02-19T23:28:57.134Z,5.00
2023-02-19T23:31:24.661Z,3.90
2023-02-19T23:33:51.910Z,3.78
2023-02-19T23:36:21.927Z,4.43
2023-02-19T23:38:49.175Z,4.20
2023-02-19T23:41:17.880Z,4.07
2023-02-19T23:43:45.719Z,4.22
2023-02-19T23:46:17.953Z,3.80
2023-02-19T23:48:46.406Z,4.30
2023-02-19T23:51:14.175Z,3.97
2023-02-19T23:53:42.626Z,3.70
2023-02-19T23:56:09.916Z,3.90
2023-02-19T23:58:37.812Z,3.90
